Time;durP1;ratioP1;P1;durP2;ratioP2;P2;SDS_P1;SDS_P2;PMS_P1;PMS_P2;Temp;Humidity;BMP_temperature;BMP_pressure;BME280_temperature;BME280_humidity;BME280_pressure;Samples;Min_cycle;Max_cycle;Signal;HPM_P1;HPM_P2
2022/01/05 12:04:56;;;;;;;6.43;4.33;;;1.40;99.90;;;;;;5093174;28;20595;-80
2022/01/05 12:07:43;;;;;;;5.17;3.20;;;1.30;99.90;;;;;;5093850;28;20161;-78
2022/01/05 12:10:22;;;;;;;13.40;9.40;;;1.30;99.90;;;;;;5091291;28;20210;-78
2022/01/05 12:13:03;;;;;;;7.30;4.00;;;1.40;99.90;;;;;;5091706;28;20181;-78
2022/01/05 12:15:53;;;;;;;5.47;3.20;;;1.30;99.90;;;;;;5095480;28;20263;-78
2022/01/05 12:18:25;;;;;;;9.83;5.07;;;1.30;99.90;;;;;;5094766;28;20207;-78
2022/01/05 12:20:52;;;;;;;7.30;3.70;;;1.40;99.90;;;;;;5094494;28;20649;-78
2022/01/05 12:23:24;;;;;;;5.30;2.77;;;1.30;99.90;;;;;;5094759;28;20198;-78
2022/01/05 12:26:07;;;;;;;7.30;2.57;;;1.10;99.90;;;;;;5094899;28;20643;-79
2022/01/05 12:28:48;;;;;;;6.10;3.40;;;1.00;99.90;;;;;;5091437;28;20269;-79
2022/01/05 12:31:14;;;;;;;6.07;3.07;;;1.10;99.90;;;;;;5092120;28;20169;-78
2022/01/05 12:33:58;;;;;;;5.63;2.93;;;1.00;99.90;;;;;;5090665;28;20182;-78
2022/01/05 12:36:39;;;;;;;5.00;3.23;;;1.00;99.90;;;;;;5091054;28;20201;-78
2022/01/05 12:39:09;;;;;;;10.63;5.60;;;0.90;99.90;;;;;;5090726;28;20246;-78
2022/01/05 12:41:39;;;;;;;4.93;2.17;;;1.10;99.90;;;;;;5092060;28;20544;-78
2022/01/05 12:44:18;;;;;;;3.73;2.47;;;1.10;99.90;;;;;;5091381;28;20209;-78
2022/01/05 12:46:44;;;;;;;5.13;1.77;;;1.00;99.90;;;;;;5092374;28;20171;-79
2022/01/05 12:49:15;;;;;;;3.57;1.90;;;1.10;99.90;;;;;;5092770;28;20250;-78
2022/01/05 12:51:47;;;;;;;2.90;1.60;;;1.10;99.90;;;;;;5092839;28;20628;-78
2022/01/05 12:54:25;;;;;;;3.93;2.47;;;1.20;99.90;;;;;;5092482;28;20641;-78
2022/01/05 12:57:00;;;;;;;6.27;2.50;;;1.20;99.90;;;;;;5092538;28;20620;-78
2022/01/05 12:59:37;;;;;;;3.17;2.20;;;1.30;99.90;;;;;;5090633;28;20196;-78
2022/01/05 13:02:13;;;;;;;2.50;2.10;;;1.10;99.90;;;;;;5089888;28;20161;-78
2022/01/05 13:04:43;;;;;;;3.53;2.40;;;1.00;99.90;;;;;;5089843;28;20247;-78
2022/01/05 13:07:10;;;;;;;1.80;1.43;;;1.00;99.90;;;;;;5091073;28;20245;-78
2022/01/05 13:09:43;;;;;;;4.03;1.90;;;1.00;99.90;;;;;;5089737;28;20247;-78
2022/01/05 13:12:12;;;;;;;3.67;1.80;;;1.00;99.90;;;;;;5090384;28;20215;-78
2022/01/05 13:14:41;;;;;;;3.03;1.53;;;1.10;99.90;;;;;;5085201;28;20257;-78
2022/01/05 13:17:11;;;;;;;4.63;2.77;;;1.20;99.90;;;;;;5075784;28;20189;-78
2022/01/05 13:19:58;;;;;;;4.70;2.17;;;1.30;99.90;;;;;;5075471;28;20611;-78
2022/01/05 13:22:46;;;;;;;5.07;3.17;;;1.30;99.90;;;;;;5075287;28;20182;-78
2022/01/05 13:25:24;;;;;;;4.63;2.87;;;1.20;99.90;;;;;;5076090;28;20246;-78
2022/01/05 13:27:55;;;;;;;4.30;2.93;;;1.20;99.90;;;;;;5076878;28;20266;-78
2022/01/05 13:30:24;;;;;;;5.27;1.67;;;1.30;99.90;;;;;;5077123;28;20170;-78
2022/01/05 13:32:56;;;;;;;6.80;2.43;;;1.30;99.90;;;;;;5075321;28;20708;-77
2022/01/05 13:35:23;;;;;;;3.83;2.23;;;1.20;99.90;;;;;;5076433;28;20169;-78
2022/01/05 13:37:55;;;;;;;4.00;1.93;;;1.00;99.90;;;;;;5076876;28;20200;-79
2022/01/05 13:40:26;;;;;;;3.53;1.63;;;1.00;99.90;;;;;;5076811;28;20564;-78
2022/01/05 13:42:55;;;;;;;4.07;1.77;;;0.90;99.90;;;;;;5075782;28;20198;-78
2022/01/05 13:45:27;;;;;;;5.73;2.10;;;0.80;99.90;;;;;;5076306;28;20167;-77
2022/01/05 13:48:02;;;;;;;2.07;1.40;;;0.80;99.90;;;;;;5076224;28;20247;-77
2022/01/05 13:50:36;;;;;;;4.20;2.57;;;0.70;99.90;;;;;;5074955;28;20597;-78
2022/01/05 13:53:27;;;;;;;13.87;6.03;;;0.70;99.90;;;;;;5076179;28;20172;-77
2022/01/05 13:55:55;;;;;;;11.47;5.43;;;0.70;99.90;;;;;;5070859;28;20236;-77
2022/01/05 13:58:26;;;;;;;5.77;3.77;;;0.70;99.90;;;;;;5076113;28;20246;-78
2022/01/05 14:01:13;;;;;;;20.50;10.83;;;0.70;99.90;;;;;;5074808;28;20167;-78
2022/01/05 14:03:45;;;;;;;20.57;8.83;;;0.60;99.90;;;;;;5075604;28;20200;-77
2022/01/05 14:06:31;;;;;;;25.63;10.13;;;0.60;99.90;;;;;;5075748;28;20175;-77
2022/01/05 14:08:58;;;;;;;14.27;5.47;;;0.70;99.90;;;;;;5074102;28;20243;-77
2022/01/05 14:11:25;;;;;;;8.27;4.90;;;0.60;99.90;;;;;;5075171;28;20204;-77
2022/01/05 14:14:11;;;;;;;4.13;2.17;;;0.60;99.90;;;;;;5074523;28;20179;-77
2022/01/05 14:16:44;;;;;;;4.77;3.13;;;0.60;99.90;;;;;;5075554;28;20245;-77
2022/01/05 14:19:12;;;;;;;4.17;1.80;;;0.60;99.90;;;;;;5073920;28;20280;-77
2022/01/05 14:21:40;;;;;;;6.40;2.33;;;0.60;99.90;;;;;;5075957;28;20169;-78
2022/01/05 14:24:09;;;;;;;4.20;2.93;;;0.40;99.90;;;;;;5074297;28;20237;-77
2022/01/05 14:26:37;;;;;;;4.43;2.90;;;0.80;99.90;;;;;;5074838;28;20167;-78
2022/01/05 14:29:03;;;;;;;3.53;2.37;;;0.40;99.90;;;;;;5074197;28;20741;-77
2022/01/05 14:31:40;;;;;;;5.13;3.20;;;0.50;99.90;;;;;;5074553;28;20176;-78
2022/01/05 14:34:13;;;;;;;4.27;2.40;;;0.40;99.90;;;;;;5074732;28;20177;-78
2022/01/05 14:36:39;;;;;;;4.77;2.50;;;0.40;99.90;;;;;;5076248;28;20162;-78
2022/01/05 14:39:15;;;;;;;5.30;3.37;;;0.30;99.90;;;;;;5074929;28;20209;-78
2022/01/05 14:41:44;;;;;;;6.00;3.30;;;0.40;99.90;;;;;;5074997;28;20172;-78
2022/01/05 14:44:24;;;;;;;4.67;2.70;;;0.30;99.90;;;;;;5075414;28;20554;-77
2022/01/05 14:46:52;;;;;;;19.93;7.70;;;0.30;99.90;;;;;;5075731;28;20154;-77
2022/01/05 14:49:19;;;;;;;17.70;8.00;;;0.20;99.90;;;;;;5074831;28;20291;-78
2022/01/05 14:51:46;;;;;;;10.23;4.97;;;0.20;99.90;;;;;;5076667;28;20195;-78
2022/01/05 14:54:13;;;;;;;16.80;7.93;;;0.20;99.90;;;;;;5074110;28;20673;-78
2022/01/05 14:56:40;;;;;;;44.10;18.73;;;0.20;99.90;;;;;;5075174;28;20202;-78
2022/01/05 14:59:10;;;;;;;18.23;10.00;;;0.30;99.90;;;;;;5074425;28;20198;-78
2022/01/05 15:01:37;;;;;;;48.00;23.80;;;0.10;99.90;;;;;;5075011;28;20183;-78
2022/01/05 15:04:04;;;;;;;7.20;3.67;;;0.10;99.90;;;;;;5074781;28;20232;-78
2022/01/05 15:06:32;;;;;;;34.33;14.97;;;0.10;99.90;;;;;;5073317;28;20173;-78
2022/01/05 15:08:58;;;;;;;11.37;5.87;;;0.00;99.90;;;;;;5073202;28;20674;-78
2022/01/05 15:11:24;;;;;;;22.00;8.70;;;0.00;99.90;;;;;;5072978;28;20188;-78
2022/01/05 15:13:50;;;;;;;25.90;11.00;;;0.00;99.90;;;;;;5074580;28;20173;-78
2022/01/05 15:16:16;;;;;;;18.90;10.23;;;-0.10;99.90;;;;;;5075042;28;20664;-78
2022/01/05 15:18:44;;;;;;;37.23;15.63;;;-0.10;99.90;;;;;;5073776;28;20215;-78
2022/01/05 15:21:11;;;;;;;16.87;7.47;;;-0.10;99.90;;;;;;5075402;28;20169;-78
2022/01/05 15:23:37;;;;;;;57.80;23.03;;;-0.10;99.90;;;;;;5073946;28;20192;-78
2022/01/05 15:26:03;;;;;;;10.03;4.97;;;-0.20;99.90;;;;;;5074831;28;20192;-77
2022/01/05 15:28:30;;;;;;;7.23;5.20;;;-0.20;99.90;;;;;;5073801;28;20685;-78
2022/01/05 15:30:57;;;;;;;4.67;3.50;;;-0.30;99.90;;;;;;5076427;28;20176;-79
2022/01/05 15:33:23;;;;;;;4.23;2.93;;;-0.30;99.90;;;;;;5072973;28;20236;-78
2022/01/05 15:35:49;;;;;;;6.47;3.30;;;-0.30;99.90;;;;;;5074380;28;20183;-77
